createdAt,value
2022-11-08T00:04:50.092Z,4160.5
2022-11-08T00:10:26.668Z,4163.4
2022-11-08T00:16:03.091Z,4162.7
2022-11-08T00:21:38.300Z,4160.5
2022-11-08T00:27:13.199Z,4159
2022-11-08T00:32:49.372Z,4159.2
2022-11-08T00:38:24.423Z,4159
2022-11-08T00:43:59.396Z,4156.7
2022-11-08T00:49:34.305Z,4154.2
2022-11-08T00:55:09.128Z,4157.5
2022-11-08T01:00:44.816Z,4155.2
2022-11-08T01:06:19.658Z,4157.7
2022-11-08T01:11:55.548Z,4161
2022-11-08T01:17:32.121Z,4157.2
2022-11-08T01:23:28.438Z,4154.8
2022-11-08T01:29:04.421Z,4158.2
2022-11-08T01:34:39.564Z,4155.8
2022-11-08T01:40:15.416Z,4154.8
2022-11-08T01:45:50.356Z,4156.2
2022-11-08T01:51:26.173Z,4156.2
2022-11-08T01:57:01.316Z,4157.2
2022-11-08T02:02:37.078Z,4154.5
2022-11-08T02:08:12.917Z,4153
2022-11-08T02:13:48.949Z,4156
2022-11-08T02:19:23.754Z,4156.7
2022-11-08T02:25:02.885Z,4158.2
2022-11-08T02:30:38.111Z,4153.7
2022-11-08T02:36:12.912Z,4153.3
2022-11-08T02:41:48.403Z,4156
2022-11-08T02:47:45.596Z,4150.8
2022-11-08T02:53:18.216Z,4148.6
2022-11-08T02:58:52.962Z,4151.8
2022-11-08T03:04:27.908Z,4154.3
2022-11-08T03:10:03.253Z,4152
2022-11-08T03:15:38.250Z,4150.3
2022-11-08T03:21:17.109Z,4151.8
2022-11-08T03:26:52.756Z,4151
2022-11-08T03:32:28.603Z,4152.5
2022-11-08T03:38:04.391Z,4151.7
2022-11-08T03:43:39.355Z,4150.3
2022-11-08T03:49:36.162Z,4147.6
2022-11-08T03:55:10.167Z,4149
2022-11-08T04:00:44.927Z,4149.5
2022-11-08T04:06:26.373Z,4148.6
2022-11-08T04:12:01.273Z,4149.8
2022-11-08T04:17:37.028Z,4148.1
2022-11-08T04:23:11.790Z,4149.1
2022-11-08T04:28:56.319Z,4150
2022-11-08T04:34:31.431Z,4147.5
2022-11-08T04:40:06.592Z,4148.6
2022-11-08T04:45:41.687Z,4148
2022-11-08T04:51:17.431Z,4147.5
2022-11-08T04:56:52.369Z,4146.8
2022-11-08T05:02:29.346Z,4146.8
2022-11-08T05:08:04.857Z,4148.3
2022-11-08T05:13:40.216Z,4143.6
2022-11-08T05:19:15.123Z,4145.8
2022-11-08T05:24:51.255Z,4147.5
2022-11-08T05:30:27.321Z,4146.1
2022-11-08T05:36:07.202Z,4146.3
2022-11-08T05:41:41.850Z,4144.1
2022-11-08T05:47:38.637Z,4142.4
2022-11-08T05:53:11.237Z,4143.6
2022-11-08T05:58:46.101Z,4141.1
2022-11-08T06:04:39.504Z,4144
2022-11-08T06:10:14.526Z,4142.1
2022-11-08T06:15:55.327Z,4142.6
2022-11-08T06:21:30.562Z,4143.1
2022-11-08T06:27:05.426Z,4144.5
2022-11-08T06:32:51.922Z,4145
2022-11-08T06:38:27.297Z,4143.6
2022-11-08T06:44:02.243Z,4141.4
2022-11-08T06:49:38.067Z,4145.8
2022-11-08T06:55:14.119Z,4149.8
2022-11-08T07:00:50.519Z,4147.8
2022-11-08T07:06:25.341Z,4147.1
2022-11-08T07:12:05.443Z,4151.8
2022-11-08T07:17:41.394Z,4151
2022-11-08T07:23:17.900Z,4154.3
2022-11-08T07:28:59.440Z,4150.6
2022-11-08T07:34:34.591Z,4153.3
2022-11-08T07:40:33.508Z,4154
2022-11-08T07:46:08.733Z,4155.3
2022-11-08T07:51:43.449Z,4152.8
2022-11-08T07:57:19.137Z,4152
2022-11-08T08:02:55.732Z,4148.5
2022-11-08T08:08:31.947Z,4148.8
2022-11-08T08:14:09.469Z,4147.5
2022-11-08T08:19:45.529Z,4142.4
2022-11-08T08:25:20.715Z,4148.3
2022-11-08T08:31:02.642Z,4145.8
2022-11-08T08:36:37.669Z,4149.8
2022-11-08T08:42:12.531Z,4150.1
2022-11-08T08:48:10.112Z,4151
2022-11-08T08:53:48.210Z,4154.5
2022-11-08T09:01:40.062Z,4157.7
2022-11-08T09:07:17.255Z,4161.5
2022-11-08T09:12:53.340Z,4154.7
2022-11-08T09:18:29.467Z,4158.5
2022-11-08T09:24:14.326Z,4160.7
2022-11-08T09:29:57.810Z,4158.2
2022-11-08T09:35:35.564Z,4166.9
2022-11-08T09:41:13.016Z,4163.9
2022-11-08T09:46:47.963Z,4159.4
2022-11-08T09:52:29.135Z,4158.4
2022-11-08T09:58:48.299Z,4162
2022-11-08T10:04:23.551Z,4160.9
2022-11-08T10:09:58.329Z,4162.7
2022-11-08T10:15:36.143Z,4161.7
2022-11-08T10:21:11.064Z,4163.7
2022-11-08T10:27:09.822Z,4161.7
2022-11-08T10:32:45.986Z,4163.4
2022-11-08T10:38:21.193Z,4166.1
2022-11-08T10:43:56.042Z,4162.7
2022-11-08T10:49:34.254Z,4164.7
2022-11-08T10:55:09.455Z,4163.5
2022-11-08T11:00:50.415Z,4161
2022-11-08T11:06:26.544Z,4165.7
2022-11-08T11:12:07.821Z,4167.4
2022-11-08T11:17:43.518Z,4169.2
2022-11-08T11:23:18.561Z,4168.1
2022-11-08T11:28:55.334Z,4163
2022-11-08T11:34:30.131Z,4168.7
2022-11-08T11:40:13.126Z,4174.1
2022-11-08T11:45:48.157Z,4173.9
2022-11-08T11:51:24.394Z,4169.6
2022-11-08T11:57:00.183Z,4169.6
2022-11-08T12:02:35.683Z,4171.6
2022-11-08T12:08:11.122Z,4168.7
2022-11-08T12:13:55.799Z,4173.8
2022-11-08T12:19:30.767Z,4172.1
2022-11-08T12:25:05.921Z,4168.9
2022-11-08T12:30:40.981Z,4171.4
2022-11-08T12:36:16.118Z,4167.4
2022-11-08T12:41:51.081Z,4171.9
2022-11-08T12:47:26.347Z,4172.4
2022-11-08T12:53:01.277Z,4175.9
2022-11-08T12:58:36.482Z,4169.7
2022-11-08T13:04:11.338Z,4169.4
2022-11-08T13:09:46.984Z,4169.1
2022-11-08T13:15:21.623Z,4165.4
2022-11-08T13:20:57.648Z,4169.4
2022-11-08T13:26:32.607Z,4173.8
2022-11-08T13:32:07.494Z,4170.6
2022-11-08T13:37:52.726Z,4166.9
2022-11-08T13:43:27.860Z,4165.9
2022-11-08T13:49:24.959Z,4170.2
2022-11-08T13:55:01.213Z,4174.6
2022-11-08T14:00:36.694Z,4172.8
2022-11-08T14:06:11.512Z,4173.9
2022-11-08T14:11:46.943Z,4172.4
2022-11-08T14:17:27.464Z,4176.8
2022-11-08T14:23:02.548Z,4175.3
2022-11-08T14:28:39.083Z,4179.1
2022-11-08T14:34:15.366Z,4179.8
2022-11-08T14:39:51.363Z,4175.9
2022-11-08T14:45:27.526Z,4177.1
2022-11-08T14:51:02.592Z,4181.5
2022-11-08T14:56:41.805Z,4179.6
2022-11-08T15:02:16.864Z,4175.9
2022-11-08T15:07:51.913Z,4174.3
2022-11-08T15:13:36.345Z,4171.8
2022-11-08T15:19:12.016Z,4170.2
2022-11-08T15:24:46.650Z,4168.4
2022-11-08T15:30:21.367Z,4168.4
2022-11-08T15:35:57.197Z,4167.9
2022-11-08T15:41:31.868Z,4167.7
2022-11-08T15:47:10.004Z,4164.4
2022-11-08T15:52:44.950Z,4165.1
2022-11-08T15:58:22.627Z,4165.1
2022-11-08T16:03:57.487Z,4163.7
2022-11-08T16:09:32.486Z,4165.2
2022-11-08T16:15:07.947Z,4164.7
2022-11-08T16:20:43.009Z,4164.2
2022-11-08T16:26:26.642Z,4166.2
2022-11-08T16:32:02.791Z,4162
2022-11-08T16:37:37.495Z,4160
2022-11-08T16:43:12.553Z,4163.7
2022-11-08T16:48:56.402Z,4162.4
2022-11-08T16:54:31.812Z,4164.9
2022-11-08T17:00:06.572Z,4162.4
2022-11-08T17:05:41.990Z,4160.9
2022-11-08T17:11:28.423Z,4156.3
2022-11-08T17:17:03.296Z,4159.5
2022-11-08T17:22:38.148Z,4160.5
2022-11-08T17:28:13.330Z,4161
2022-11-08T17:33:48.393Z,4162.9
2022-11-08T17:39:24.423Z,4160.7
2022-11-08T17:44:59.314Z,4159.9
2022-11-08T17:50:34.306Z,4158
2022-11-08T17:56:10.164Z,4159.5
2022-11-08T18:01:46.720Z,4160
2022-11-08T18:07:23.415Z,4154.7
2022-11-08T18:12:58.329Z,4157.2
2022-11-08T18:18:34.290Z,4158.9
2022-11-08T18:24:10.526Z,4157.4
2022-11-08T18:29:45.621Z,4158.9
2022-11-08T18:35:21.659Z,4157.7
2022-11-08T18:40:56.577Z,4158.9
2022-11-08T18:46:53.601Z,4152.5
2022-11-08T18:52:26.572Z,4153.2
2022-11-08T18:58:02.081Z,4156.3
2022-11-08T19:03:37.551Z,4153.5
2022-11-08T19:09:14.930Z,4155
2022-11-08T19:14:50.611Z,4155.2
2022-11-08T19:20:25.554Z,4153.8
2022-11-08T19:26:00.578Z,4157.4
2022-11-08T19:31:36.092Z,4156.8
2022-11-08T19:37:19.761Z,4151.7
2022-11-08T19:42:55.565Z,4153
2022-11-08T19:48:52.684Z,4150.1
2022-11-08T19:54:25.284Z,4152.3
2022-11-08T20:00:01.173Z,4152
2022-11-08T20:05:36.075Z,4151
2022-11-08T20:11:11.777Z,4151.8
2022-11-08T20:16:54.851Z,4150.3
2022-11-08T20:22:29.802Z,4151.5
2022-11-08T20:28:06.131Z,4153.8
2022-11-08T20:33:42.400Z,4151.8
2022-11-08T20:39:17.848Z,4155.5
2022-11-08T20:44:54.333Z,4152.3
2022-11-08T20:50:29.214Z,4151.5
2022-11-08T20:56:04.370Z,4151.7
2022-11-08T21:01:41.374Z,4149
2022-11-08T21:09:49.217Z,4149.5
2022-11-08T21:15:28.564Z,4148.6
2022-11-08T21:21:04.613Z,4149.1
2022-11-08T21:26:40.331Z,4149.6
2022-11-08T21:32:15.370Z,4150
2022-11-08T21:37:50.324Z,4151
2022-11-08T21:43:25.317Z,4149.8
2022-11-08T21:49:22.263Z,4146.5
2022-11-08T21:54:55.078Z,4149
2022-11-08T22:00:30.759Z,4149.8
2022-11-08T22:06:05.625Z,4148
2022-11-08T22:11:41.857Z,4150.1
2022-11-08T22:17:16.722Z,4148.5
2022-11-08T22:22:51.585Z,4144.6
2022-11-08T22:28:26.771Z,4148.5
2022-11-08T22:34:01.783Z,4145
2022-11-08T22:39:36.791Z,4147.1
2022-11-08T22:45:12.498Z,4146.5
2022-11-08T22:50:48.103Z,4146
2022-11-08T22:56:24.142Z,4147.3
2022-11-08T23:01:59.119Z,4146.8
2022-11-08T23:07:34.073Z,4144.5
2022-11-08T23:13:09.918Z,4145.1
2022-11-08T23:18:44.771Z,4144.3
2022-11-08T23:24:20.518Z,4143.8
2022-11-08T23:29:55.517Z,4142.3
2022-11-08T23:35:30.544Z,4143.8
2022-11-08T23:41:05.378Z,4143.3
2022-11-08T23:47:02.146Z,4140.1
2022-11-08T23:52:36.060Z,4144.5
2022-11-08T23:58:11.316Z,4142.9
